createdAt,value
2023-05-05T00:01:33.184Z,6.90
2023-05-05T00:04:00.410Z,8.13
2023-05-05T00:06:28.690Z,7.22
2023-05-05T00:08:56.318Z,7.57
2023-05-05T00:11:23.323Z,7.28
2023-05-05T00:13:50.748Z,6.28
2023-05-05T00:16:17.644Z,7.10
2023-05-05T00:18:44.865Z,8.20
2023-05-05T00:21:11.823Z,8.07
2023-05-05T00:23:38.756Z,6.03
2023-05-05T00:26:05.805Z,7.68
2023-05-05T00:28:32.734Z,5.80
2023-05-05T00:30:59.707Z,6.05
2023-05-05T00:33:26.839Z,7.35
2023-05-05T00:35:53.825Z,6.85
2023-05-05T00:38:20.722Z,7.10
2023-05-05T00:40:47.913Z,6.50
2023-05-05T00:43:14.989Z,6.60
2023-05-05T00:45:44.280Z,7.57
2023-05-05T00:48:11.340Z,6.78
2023-05-05T00:50:38.579Z,7.18
2023-05-05T00:53:06.739Z,7.30
2023-05-05T00:55:34.745Z,7.25
2023-05-05T00:58:02.665Z,8.07
2023-05-05T01:00:30.072Z,6.65
2023-05-05T01:02:57.692Z,6.28
2023-05-05T01:05:25.028Z,7.20
2023-05-05T01:08:16.522Z,7.65
2023-05-05T01:10:52.531Z,7.72
2023-05-05T01:13:42.884Z,8.50
2023-05-05T01:16:17.605Z,8.43
2023-05-05T01:19:17.382Z,6.57
2023-05-05T01:21:47.250Z,7.45
2023-05-05T01:24:51.355Z,10.07
2023-05-05T01:27:38.428Z,7.63
2023-05-05T01:30:41.887Z,7.28
2023-05-05T01:33:09.819Z,8.10
2023-05-05T01:35:41.792Z,7.38
2023-05-05T01:38:23.115Z,6.35
2023-05-05T01:41:04.918Z,7.13
2023-05-05T01:43:33.230Z,6.32
2023-05-05T01:46:00.176Z,8.80
2023-05-05T01:48:27.193Z,7.88
2023-05-05T01:50:54.124Z,7.43
2023-05-05T01:53:23.221Z,9.75
2023-05-05T01:55:50.260Z,7.13
2023-05-05T01:58:17.242Z,8.27
2023-05-05T02:00:44.678Z,7.70
2023-05-05T02:03:12.606Z,8.38
2023-05-05T02:05:39.723Z,7.72
2023-05-05T02:08:06.753Z,7.47
2023-05-05T02:10:33.728Z,9.93
2023-05-05T02:13:02.118Z,8.48
2023-05-05T02:15:29.424Z,8.23
2023-05-05T02:17:56.618Z,9.45
2023-05-05T02:20:23.760Z,7.70
2023-05-05T02:22:50.923Z,10.23
2023-05-05T02:25:18.012Z,7.35
2023-05-05T02:27:46.545Z,6.30
2023-05-05T02:30:14.810Z,10.13
2023-05-05T02:33:06.316Z,7.28
2023-05-05T02:35:40.496Z,9.32
2023-05-05T02:38:13.814Z,10.45
2023-05-05T02:40:42.724Z,9.82
2023-05-05T02:43:14.386Z,9.35
2023-05-05T02:45:41.416Z,7.32
2023-05-05T02:48:10.631Z,7.05
2023-05-05T02:50:39.117Z,10.18
2023-05-05T02:53:14.565Z,8.98
2023-05-05T02:55:45.722Z,9.38
2023-05-05T03:00:59.326Z,7.38
2023-05-05T03:03:40.090Z,11.18
2023-05-05T03:06:14.012Z,11.25
2023-05-05T03:08:48.159Z,11.30
2023-05-05T03:11:21.795Z,8.32
2023-05-05T03:13:51.347Z,10.32
2023-05-05T03:16:21.624Z,12.27
2023-05-05T03:18:48.605Z,11.73
2023-05-05T03:21:15.783Z,10.73
2023-05-05T03:23:43.048Z,12.65
2023-05-05T03:26:18.725Z,9.82
2023-05-05T03:28:46.779Z,10.88
2023-05-05T03:31:25.067Z,10.10
2023-05-05T03:33:55.962Z,12.50
2023-05-05T03:36:29.268Z,14.52
2023-05-05T03:38:58.450Z,13.45
2023-05-05T03:41:27.761Z,14.88
2023-05-05T03:43:55.142Z,12.98
2023-05-05T03:46:22.175Z,13.57
2023-05-05T03:48:49.186Z,12.88
2023-05-05T03:51:16.459Z,14.23
2023-05-05T03:53:43.777Z,12.55
2023-05-05T03:56:11.182Z,12.95
2023-05-05T03:58:38.176Z,16.58
2023-05-05T04:01:05.258Z,11.40
2023-05-05T04:03:32.369Z,13.60
2023-05-05T04:06:00.008Z,13.85
2023-05-05T04:08:27.841Z,15.25
2023-05-05T04:10:54.847Z,12.75
2023-05-05T04:13:22.113Z,14.32
2023-05-05T04:15:49.285Z,14.10
2023-05-05T04:18:17.753Z,14.15
2023-05-05T04:20:44.820Z,16.13
2023-05-05T04:23:12.319Z,10.73
2023-05-05T04:25:40.353Z,12.85
2023-05-05T04:28:07.803Z,14.13
2023-05-05T04:30:34.762Z,14.85
2023-05-05T04:33:02.090Z,12.27
2023-05-05T04:35:29.764Z,13.55
2023-05-05T04:37:57.475Z,14.82
2023-05-05T04:40:26.251Z,16.40
2023-05-05T04:42:54.140Z,15.35
2023-05-05T04:45:21.653Z,13.43
2023-05-05T04:47:48.946Z,13.75
2023-05-05T04:50:16.616Z,14.68
2023-05-05T04:52:43.669Z,15.20
2023-05-05T04:55:11.656Z,11.93
2023-05-05T04:57:38.726Z,14.40
2023-05-05T05:00:06.712Z,12.63
2023-05-05T05:02:33.929Z,11.25
2023-05-05T05:05:01.080Z,11.07
2023-05-05T05:07:28.102Z,11.15
2023-05-05T05:09:55.157Z,15.10
2023-05-05T05:12:22.260Z,13.38
2023-05-05T05:14:50.495Z,11.07
2023-05-05T05:17:17.503Z,11.23
2023-05-05T05:19:44.411Z,13.20
2023-05-05T05:22:11.379Z,10.52
2023-05-05T05:24:40.935Z,12.43
2023-05-05T05:27:10.143Z,13.05
2023-05-05T05:29:39.165Z,9.90
2023-05-05T05:32:06.197Z,9.23
2023-05-05T05:34:33.388Z,9.85
2023-05-05T05:37:00.465Z,13.98
2023-05-05T05:39:27.841Z,11.65
2023-05-05T05:41:55.156Z,11.90
2023-05-05T05:44:22.294Z,9.73
2023-05-05T05:46:49.286Z,11.20
2023-05-05T05:49:16.928Z,10.70
2023-05-05T05:51:44.036Z,11.98
2023-05-05T05:54:10.962Z,10.48
2023-05-05T05:56:38.130Z,11.10
2023-05-05T05:59:08.067Z,13.55
2023-05-05T06:01:35.726Z,13.05
2023-05-05T06:04:03.652Z,10.10
2023-05-05T06:06:31.629Z,10.15
2023-05-05T06:08:58.812Z,11.73
2023-05-05T06:11:26.521Z,9.88
2023-05-05T06:13:53.536Z,13.45
2023-05-05T06:16:20.520Z,9.85
2023-05-05T06:18:48.272Z,13.40
2023-05-05T06:21:15.568Z,12.32
2023-05-05T06:23:42.688Z,12.75
2023-05-05T06:26:09.809Z,11.77
2023-05-05T06:28:36.793Z,14.85
2023-05-05T06:31:03.843Z,10.82
2023-05-05T06:33:30.822Z,12.02
2023-05-05T06:35:57.954Z,10.57
2023-05-05T06:38:25.101Z,12.07
2023-05-05T06:40:52.027Z,13.02
2023-05-05T06:43:18.948Z,10.95
2023-05-05T06:45:53.027Z,10.98
2023-05-05T06:48:20.255Z,10.60
2023-05-05T06:50:47.406Z,10.40
2023-05-05T06:53:14.321Z,8.63
2023-05-05T06:55:44.174Z,12.52
2023-05-05T06:58:11.957Z,10.00
2023-05-05T07:00:42.398Z,11.30
2023-05-05T07:03:09.405Z,11.27
2023-05-05T07:05:36.932Z,9.98
2023-05-05T07:08:04.001Z,8.38
2023-05-05T07:10:31.948Z,10.15
2023-05-05T07:12:59.204Z,9.18
2023-05-05T07:15:29.201Z,10.75
2023-05-05T07:17:57.268Z,12.13
2023-05-05T07:20:24.585Z,8.45
2023-05-05T07:22:51.618Z,10.15
2023-05-05T07:25:18.648Z,9.85
2023-05-05T07:27:45.664Z,9.55
2023-05-05T07:30:16.307Z,9.70
2023-05-05T07:32:43.506Z,9.05
2023-05-05T07:35:10.871Z,10.82
2023-05-05T07:37:37.774Z,8.95
2023-05-05T07:40:05.631Z,11.07
2023-05-05T07:42:33.215Z,9.27
2023-05-05T07:45:00.163Z,10.70
2023-05-05T07:47:27.481Z,8.85
2023-05-05T07:49:54.426Z,8.70
2023-05-05T07:52:30.101Z,8.43
2023-05-05T07:55:04.983Z,8.82
2023-05-05T07:57:31.889Z,9.23
2023-05-05T07:59:58.842Z,7.20
2023-05-05T08:02:25.927Z,7.13
2023-05-05T08:04:52.985Z,7.50
2023-05-05T08:07:20.082Z,6.90
2023-05-05T08:09:47.034Z,6.95
2023-05-05T08:12:15.247Z,6.13
2023-05-05T08:14:42.608Z,6.78
2023-05-05T08:17:09.511Z,6.00
2023-05-05T08:19:36.426Z,5.60
2023-05-05T08:22:03.383Z,5.05
2023-05-05T08:24:30.923Z,8.05
2023-05-05T08:26:58.014Z,6.93
2023-05-05T08:29:25.134Z,8.48
2023-05-05T08:31:52.575Z,7.63
2023-05-05T08:34:20.039Z,8.10
2023-05-05T08:36:49.060Z,6.97
2023-05-05T08:39:16.665Z,7.40
2023-05-05T08:41:43.650Z,7.80
2023-05-05T08:44:10.829Z,5.93
2023-05-05T08:46:37.919Z,5.72
2023-05-05T08:49:05.123Z,7.40
2023-05-05T08:51:35.912Z,6.25
2023-05-05T08:54:03.845Z,6.05
2023-05-05T08:56:36.811Z,5.85
2023-05-05T08:59:03.762Z,5.80
2023-05-05T09:01:31.457Z,6.78
2023-05-05T09:03:59.121Z,5.97
2023-05-05T09:06:27.405Z,8.10
2023-05-05T09:08:56.053Z,6.40
2023-05-05T09:11:24.446Z,5.03
2023-05-05T09:13:51.567Z,6.38
2023-05-05T09:16:18.508Z,6.32
2023-05-05T09:18:45.813Z,9.07
2023-05-05T09:21:25.024Z,6.72
2023-05-05T09:24:09.076Z,6.93
2023-05-05T09:26:37.954Z,6.45
2023-05-05T09:29:05.571Z,8.27
2023-05-05T09:31:33.349Z,5.60
2023-05-05T09:34:04.452Z,8.27
2023-05-05T09:36:45.599Z,9.23
2023-05-05T09:39:12.607Z,8.18
2023-05-05T09:41:40.376Z,8.73
2023-05-05T09:44:07.686Z,6.03
2023-05-05T09:46:34.794Z,7.18
2023-05-05T09:49:23.543Z,6.80
2023-05-05T09:51:51.641Z,6.72
2023-05-05T09:54:32.793Z,7.65
2023-05-05T09:56:59.726Z,7.47
2023-05-05T09:59:26.644Z,5.97
2023-05-05T10:01:53.883Z,7.13
2023-05-05T10:04:25.244Z,6.82
2023-05-05T10:06:52.238Z,6.95
2023-05-05T10:09:19.310Z,7.40
2023-05-05T10:11:47.318Z,7.10
2023-05-05T10:14:15.859Z,6.47
2023-05-05T10:16:49.440Z,6.30
2023-05-05T10:19:17.279Z,10.50
2023-05-05T10:21:50.644Z,6.85
2023-05-05T10:24:24.419Z,8.80
2023-05-05T10:26:51.401Z,5.47
2023-05-05T10:29:28.359Z,5.45
2023-05-05T10:31:55.343Z,6.35
2023-05-05T10:34:27.150Z,8.43
2023-05-05T10:36:55.190Z,7.38
2023-05-05T10:39:22.419Z,8.82
2023-05-05T10:41:49.690Z,7.18
2023-05-05T10:44:17.625Z,8.57
2023-05-05T10:46:44.906Z,6.47
2023-05-05T10:49:38.675Z,9.20
2023-05-05T10:52:14.572Z,8.55
2023-05-05T10:54:56.028Z,5.82
2023-05-05T10:57:25.078Z,7.05
2023-05-05T10:59:52.068Z,7.07
2023-05-05T11:02:29.504Z,6.55
2023-05-05T11:05:15.328Z,8.43
2023-05-05T11:07:42.809Z,8.15
2023-05-05T11:10:14.586Z,7.07
2023-05-05T11:13:04.891Z,5.93
2023-05-05T11:15:33.655Z,7.35
2023-05-05T11:18:02.655Z,6.32
2023-05-05T11:20:40.986Z,6.88
2023-05-05T11:23:08.138Z,6.10
2023-05-05T11:25:39.071Z,6.97
2023-05-05T11:28:07.152Z,5.38
2023-05-05T11:30:34.589Z,6.35
2023-05-05T11:33:24.176Z,6.90
2023-05-05T11:36:01.284Z,8.75
2023-05-05T11:38:53.717Z,7.35
2023-05-05T11:41:32.556Z,7.35
2023-05-05T11:44:32.216Z,6.05
2023-05-05T11:47:02.007Z,5.50
2023-05-05T11:49:30.023Z,7.40
2023-05-05T11:52:00.353Z,8.52
2023-05-05T11:54:27.389Z,8.73
2023-05-05T11:56:56.239Z,7.25
2023-05-05T11:59:23.193Z,5.55
2023-05-05T12:01:50.149Z,6.55
2023-05-05T12:04:48.627Z,7.68
2023-05-05T12:07:46.436Z,5.85
2023-05-05T12:10:53.713Z,5.15
2023-05-05T12:18:11.747Z,5.53
2023-05-05T12:20:48.224Z,7.78
2023-05-05T12:23:15.657Z,6.03
2023-05-05T12:25:42.855Z,6.40
2023-05-05T12:28:10.339Z,6.53
2023-05-05T12:30:37.631Z,7.60
2023-05-05T12:33:06.363Z,6.80
2023-05-05T12:35:33.638Z,6.93
2023-05-05T12:38:00.829Z,6.55
2023-05-05T12:40:49.078Z,7.30
2023-05-05T12:43:29.186Z,7.03
2023-05-05T12:46:03.755Z,6.63
2023-05-05T12:48:31.019Z,7.63
2023-05-05T12:51:14.947Z,8.40
2023-05-05T12:53:42.264Z,7.32
2023-05-05T12:56:38.748Z,7.82
2023-05-05T12:59:07.832Z,6.55
2023-05-05T13:01:35.896Z,6.55
2023-05-05T13:04:12.974Z,7.03
2023-05-05T13:06:41.423Z,7.70
2023-05-05T13:09:10.397Z,7.18
2023-05-05T13:11:38.144Z,6.82
2023-05-05T13:14:06.261Z,7.32
2023-05-05T13:16:34.016Z,5.70
2023-05-05T13:19:01.161Z,7.32
2023-05-05T13:21:28.289Z,5.95
2023-05-05T13:24:04.907Z,8.57
2023-05-05T13:26:39.561Z,8.65
2023-05-05T13:29:06.641Z,6.88
2023-05-05T13:31:33.921Z,8.25
2023-05-05T13:34:01.217Z,7.50
2023-05-05T13:36:28.241Z,8.55
2023-05-05T13:38:55.454Z,8.35
2023-05-05T13:41:22.515Z,7.10
2023-05-05T13:43:49.743Z,9.13
2023-05-05T13:46:19.983Z,7.07
2023-05-05T13:48:47.691Z,6.90
2023-05-05T13:51:16.421Z,7.97
2023-05-05T13:53:46.683Z,9.10
2023-05-05T13:56:14.487Z,7.40
2023-05-05T13:58:42.572Z,9.80
2023-05-05T14:01:10.024Z,8.82
2023-05-05T14:03:37.104Z,7.32
2023-05-05T14:06:04.173Z,8.40
2023-05-05T14:08:31.198Z,7.97
2023-05-05T14:10:58.160Z,7.13
2023-05-05T14:13:26.285Z,8.55
2023-05-05T14:15:53.937Z,8.77
2023-05-05T14:18:21.177Z,8.40
2023-05-05T14:20:48.124Z,6.47
2023-05-05T14:23:15.054Z,7.50
2023-05-05T14:25:41.989Z,6.65
2023-05-05T14:28:08.992Z,7.38
2023-05-05T14:30:35.946Z,9.75
2023-05-05T14:33:02.930Z,6.72
2023-05-05T14:35:31.385Z,7.82
2023-05-05T14:37:58.346Z,7.40
2023-05-05T14:40:25.245Z,6.90
2023-05-05T14:42:52.199Z,8.05
2023-05-05T14:45:19.392Z,7.95
2023-05-05T14:47:46.376Z,7.20
2023-05-05T14:50:14.234Z,5.93
2023-05-05T14:52:41.592Z,8.80
2023-05-05T14:55:09.374Z,6.75
2023-05-05T14:57:38.278Z,6.95
2023-05-05T15:00:08.248Z,10.48
2023-05-05T15:02:35.488Z,7.15
2023-05-05T15:05:02.449Z,6.70
2023-05-05T15:07:29.912Z,7.03
2023-05-05T15:09:56.819Z,7.63
2023-05-05T15:12:23.971Z,6.22
2023-05-05T15:14:51.034Z,8.77
2023-05-05T15:17:18.011Z,8.75
2023-05-05T15:19:45.017Z,8.80
2023-05-05T15:22:11.995Z,8.00
2023-05-05T15:24:39.018Z,7.53
2023-05-05T15:27:06.101Z,10.65
2023-05-05T15:29:33.205Z,9.48
2023-05-05T15:32:00.470Z,9.27
2023-05-05T15:34:27.739Z,8.57
2023-05-05T15:36:54.805Z,7.28
2023-05-05T15:39:21.769Z,9.38
2023-05-05T15:41:48.802Z,10.52
2023-05-05T15:44:16.052Z,8.68
2023-05-05T15:46:43.045Z,9.00
2023-05-05T15:49:12.780Z,7.60
2023-05-05T15:51:40.364Z,7.05
2023-05-05T15:54:07.781Z,8.35
2023-05-05T15:56:34.894Z,9.43
2023-05-05T15:59:03.360Z,7.65
2023-05-05T16:01:30.378Z,8.90
2023-05-05T16:03:58.055Z,8.15
2023-05-05T16:06:27.360Z,8.25
2023-05-05T16:08:56.114Z,8.93
2023-05-05T16:11:24.023Z,7.78
2023-05-05T16:13:51.054Z,8.02
2023-05-05T16:16:18.188Z,10.48
2023-05-05T16:18:45.337Z,10.10
2023-05-05T16:21:12.363Z,12.50
2023-05-05T16:23:39.431Z,8.77
2023-05-05T16:26:06.393Z,9.70
2023-05-05T16:28:34.391Z,9.13
2023-05-05T16:31:02.329Z,9.38
2023-05-05T16:33:29.761Z,6.70
2023-05-05T16:35:57.099Z,9.88
2023-05-05T16:38:24.098Z,9.90
2023-05-05T16:40:51.075Z,9.80
2023-05-05T16:43:19.636Z,9.23
2023-05-05T16:45:46.803Z,9.10
2023-05-05T16:48:14.765Z,8.32
2023-05-05T16:50:41.857Z,8.57
2023-05-05T16:53:10.085Z,8.32
2023-05-05T16:55:37.522Z,9.38
2023-05-05T16:58:04.696Z,10.55
2023-05-05T17:00:31.809Z,8.27
2023-05-05T17:02:58.945Z,11.00
2023-05-05T17:05:26.077Z,11.25
2023-05-05T17:07:53.199Z,11.85
2023-05-05T17:10:20.251Z,8.90
2023-05-05T17:12:47.303Z,10.43
2023-05-05T17:15:14.426Z,9.45
2023-05-05T17:17:43.000Z,8.27
2023-05-05T17:20:11.055Z,10.40
2023-05-05T17:22:38.108Z,11.15
2023-05-05T17:25:05.895Z,10.65
2023-05-05T17:27:33.127Z,12.23
2023-05-05T17:30:00.060Z,10.18
2023-05-05T17:32:27.317Z,11.63
2023-05-05T17:34:54.466Z,8.68
2023-05-05T17:37:21.533Z,9.00
2023-05-05T17:39:48.601Z,10.93
2023-05-05T17:42:18.692Z,11.30
2023-05-05T17:44:47.549Z,10.07
2023-05-05T17:47:14.687Z,10.70
2023-05-05T17:49:41.745Z,10.07
2023-05-05T17:52:08.697Z,10.57
2023-05-05T17:54:35.833Z,9.68
2023-05-05T17:57:02.910Z,9.80
2023-05-05T17:59:31.541Z,12.35
2023-05-05T18:01:58.485Z,9.77
2023-05-05T18:04:25.565Z,11.18
2023-05-05T18:06:55.711Z,12.35
2023-05-05T18:09:23.443Z,9.70
2023-05-05T18:11:53.773Z,12.40
2023-05-05T18:14:22.490Z,13.32
2023-05-05T18:16:52.205Z,11.82
2023-05-05T18:19:22.940Z,12.20
2023-05-05T18:21:51.716Z,14.97
2023-05-05T18:24:20.390Z,11.40
2023-05-05T18:26:51.443Z,12.48
2023-05-05T18:29:19.202Z,12.40
2023-05-05T18:31:49.645Z,9.93
2023-05-05T18:34:17.143Z,10.48
2023-05-05T18:36:44.707Z,10.13
2023-05-05T18:39:11.839Z,9.85
2023-05-05T18:41:40.073Z,12.88
2023-05-05T18:44:07.557Z,10.27
2023-05-05T18:46:34.624Z,8.05
2023-05-05T18:49:01.957Z,11.63
2023-05-05T18:51:29.153Z,12.15
2023-05-05T18:53:56.360Z,11.10
2023-05-05T18:56:23.401Z,11.00
2023-05-05T18:58:50.593Z,11.38
2023-05-05T19:01:17.916Z,11.05
2023-05-05T19:03:48.245Z,12.23
2023-05-05T19:06:15.949Z,12.50
2023-05-05T19:08:43.831Z,14.25
2023-05-05T19:11:11.163Z,9.90
2023-05-05T19:13:39.924Z,16.45
2023-05-05T19:16:07.779Z,11.80
2023-05-05T19:18:34.847Z,11.82
2023-05-05T19:21:02.203Z,11.13
2023-05-05T19:23:29.286Z,10.65
2023-05-05T19:25:56.575Z,13.60
2023-05-05T19:28:24.412Z,12.23
2023-05-05T19:30:52.287Z,10.35
2023-05-05T19:33:19.447Z,13.18
2023-05-05T19:35:46.565Z,9.00
2023-05-05T19:38:13.804Z,9.48
2023-05-05T19:40:43.873Z,13.07
2023-05-05T19:43:11.502Z,12.07
2023-05-05T19:45:38.717Z,10.48
2023-05-05T19:48:06.373Z,12.40
2023-05-05T19:50:33.523Z,11.43
2023-05-05T19:53:00.739Z,11.07
2023-05-05T19:55:27.754Z,12.02
2023-05-05T19:57:54.997Z,10.27
2023-05-05T20:00:22.079Z,12.48
2023-05-05T20:02:49.253Z,13.25
2023-05-05T20:05:17.618Z,14.65
2023-05-05T20:07:46.481Z,11.13
2023-05-05T20:10:13.969Z,13.45
2023-05-05T20:12:47.642Z,10.30
2023-05-05T20:15:19.050Z,13.20
2023-05-05T20:17:49.589Z,10.43
2023-05-05T20:20:19.167Z,14.30
2023-05-05T20:22:48.040Z,11.60
2023-05-05T20:25:18.461Z,13.40
2023-05-05T20:27:45.969Z,15.38
2023-05-05T20:30:13.565Z,11.90
2023-05-05T20:32:40.957Z,10.98
2023-05-05T20:35:08.755Z,12.10
2023-05-05T20:37:36.366Z,11.38
2023-05-05T20:40:03.841Z,11.55
2023-05-05T20:42:30.901Z,13.85
2023-05-05T20:44:58.019Z,13.07
2023-05-05T20:47:25.448Z,12.10
2023-05-05T20:49:52.684Z,12.82
2023-05-05T20:52:19.879Z,16.30
2023-05-05T20:54:46.796Z,13.30
2023-05-05T20:57:13.897Z,10.52
2023-05-05T20:59:40.790Z,13.48
2023-05-05T21:02:08.063Z,15.88
2023-05-05T21:04:35.249Z,14.10
2023-05-05T21:07:03.322Z,11.20
2023-05-05T21:09:31.520Z,12.32
2023-05-05T21:11:58.566Z,14.23
2023-05-05T21:14:25.565Z,14.43
2023-05-05T21:16:52.772Z,12.45
2023-05-05T21:19:20.068Z,11.93
2023-05-05T21:21:47.688Z,15.75
2023-05-05T21:24:14.659Z,13.63
2023-05-05T21:26:45.161Z,14.43
2023-05-05T21:29:12.205Z,13.75
2023-05-05T21:31:39.129Z,11.25
2023-05-05T21:34:06.062Z,12.70
2023-05-05T21:36:34.110Z,10.30
2023-05-05T21:39:01.227Z,12.65
2023-05-05T21:41:28.334Z,15.45
2023-05-05T21:43:55.736Z,10.45
2023-05-05T21:46:22.936Z,10.95
2023-05-05T21:48:50.125Z,15.48
2023-05-05T21:51:17.667Z,12.75
2023-05-05T21:53:45.003Z,11.85
2023-05-05T21:56:12.044Z,11.77
2023-05-05T21:58:39.033Z,12.68
2023-05-05T22:01:06.102Z,14.63
2023-05-05T22:03:34.432Z,13.50
2023-05-05T22:06:01.471Z,11.05
2023-05-05T22:08:28.508Z,12.07
2023-05-05T22:10:55.550Z,10.57
2023-05-05T22:13:22.677Z,13.73
2023-05-05T22:15:49.815Z,10.30
2023-05-05T22:18:17.181Z,10.85
2023-05-05T22:20:44.273Z,12.82
2023-05-05T22:23:11.260Z,11.50
2023-05-05T22:25:38.334Z,11.75
2023-05-05T22:28:05.642Z,15.82
2023-05-05T22:30:32.673Z,12.65
2023-05-05T22:32:59.778Z,11.27
2023-05-05T22:35:27.168Z,14.30
2023-05-05T22:37:54.293Z,10.32
2023-05-05T22:40:21.415Z,14.48
2023-05-05T22:42:48.330Z,11.88
2023-05-05T22:45:15.513Z,11.50
2023-05-05T22:47:42.629Z,12.82
2023-05-05T22:50:10.086Z,11.93
2023-05-05T22:52:37.252Z,14.43
2023-05-05T22:55:04.541Z,14.95
2023-05-05T22:57:31.518Z,13.27
2023-05-05T22:59:58.429Z,11.05
2023-05-05T23:02:26.780Z,12.65
2023-05-05T23:04:54.009Z,13.60
2023-05-05T23:07:21.036Z,13.20
2023-05-05T23:09:48.131Z,13.43
2023-05-05T23:12:15.233Z,14.50
2023-05-05T23:14:42.266Z,13.85
2023-05-05T23:17:09.489Z,13.65
2023-05-05T23:19:36.787Z,10.55
2023-05-05T23:22:03.912Z,13.75
2023-05-05T23:24:31.048Z,14.82
2023-05-05T23:27:04.170Z,12.43
2023-05-05T23:29:31.141Z,10.68
2023-05-05T23:31:58.351Z,11.95
2023-05-05T23:34:26.209Z,14.38
2023-05-05T23:36:53.408Z,12.82
2023-05-05T23:39:20.330Z,13.18
2023-05-05T23:41:47.207Z,9.32
2023-05-05T23:44:14.174Z,10.52
2023-05-05T23:46:41.197Z,13.00
2023-05-05T23:49:08.646Z,10.68
2023-05-05T23:51:35.825Z,11.10
2023-05-05T23:54:03.294Z,12.15
2023-05-05T23:56:30.565Z,9.35
2023-05-05T23:58:57.519Z,12.23
